Thief River Falls, MN

7:39 PM CDT on July 11, 2014 (GMT -0500)
Thief River Falls Regional (KTVF) Elev 1115 ft | 48.06 °N, 96.18 °W | Change Station

Current weather conditions updated 4 minutes ago

Clear
Clear
79 °F
Feels Like 79 °F
N
12
Wind Variable Wind from WNW

Tomorrow is forecast to be Cooler than today. Rain ending early tomorrow night.

Today
High -- | Low -- °F
--% Chance of Precip.
Yesterday
High -- | Low -- °F
Precip. -- in
5:36 AM 9:23 PM
Full, 100% visible
Pressure 29.94 in
Visibility 10.0 miles
Clouds Clear
Dew Point 50 °F
Humidity 36%
Rainfall 0.00 in
Snow Depth Not available.
UV 1 out of 12
Pollen 4.00 out of 12
Air Quality Not available.
Flu Activity Sporadic
METAR KTVF 120035Z AUTO 29010KT 10SM CLR 26/10 A2994 RMK AO1

More Conditions Fewer Conditions

Pressure 29.94 in
Visibility 10.0 miles
Clouds Clear
Dew Point 50 °F
Humidity 36%
Rainfall 0.00 in
Snow Depth Not available.
UV 1 out of 12
Pollen 4.00 out of 12
Air Quality Not available.
Flu Activity Sporadic
METAR KTVF 120035Z AUTO 29010KT 10SM CLR 26/10 A2994 RMK AO1

More Conditions Fewer Conditions

10-Day Weather Forecast

Almanac

Astronomy

Jul. 11, 2014 Rise Set
Actual Time 5:36 AM CDT 9:23 PM CDT
Civil Twilight 4:56 AM CDT 10:03 PM CDT
Nautical Twilight 4:01 AM CDT 10:57 PM CDT
Astronomical Twilight 2:41 AM CDT 12:16 AM CDT
Moon 8:28 PM CDT (7/11) 4:55 AM CDT (7/11)
Length of Visible Light 17h 06m
Length of Day
15h 46m
Tomorrow will be 1m 40s shorter.
Full, 100% of the Moon is Illuminated
Today
Full
Jul 12
Full
Jul 18
Last Quarter
Jul 26
New
Aug 3
First Quarter

Today's Extremes

State Highs State Lows

Community

WunderPhotos

Upload Photos

1,732,605 photos uploaded!

WunderBlogs® & News

Nearby

Snow Depth

Station Depth Elevation
No new snow has been reported.

Earthquake Activity

City Distance Mag. Time & Date
No recent earthquake activity has been reported nearby.
Minimum magnitude displayed is 2.5.

Coastal Water Temperatures

Place Temperature
No Stations Reporting

Nearby Weather Stations

Station Location Temp. Heat Index Dew Point Humidity Wind Precip. Elev Updated Type
RAWS AGASSIZ MN, Gatzke, MN 80 °F 80 °F 56 °F 44% WNW  at  10 mph 0.00 in / hr 919 ft 6:20 PM CDT MADIS
RAWS AGASSIZ PORTABLE MN, Middle River, MN 80 °F 80 °F 55 °F 43% West  at  9 mph 0.00 in / hr 1147 ft 6:32 PM CDT MADIS
Rural Gentilly, Red Lake Falls, MN 82.8 °F 84 °F 62 °F 50% WNW  at  7.8 mph - / hr 1014 ft 7:25 PM CDT Normal

Show More Stations Show Fewer Stations